createdAt,value
2022-08-01T00:01:01.180Z,71.56
2022-08-01T00:04:04.800Z,71.59
2022-08-01T00:07:07.707Z,71.62
2022-08-01T00:10:14.464Z,71.61
2022-08-01T00:13:17.428Z,71.55
2022-08-01T00:16:23.602Z,71.48
2022-08-01T00:19:26.502Z,71.42
2022-08-01T00:22:29.566Z,71.45
2022-08-01T00:25:34.013Z,71.43
2022-08-01T00:28:37.606Z,71.37
2022-08-01T00:31:40.469Z,71.40
2022-08-01T00:34:43.416Z,71.50
2022-08-01T00:37:46.308Z,71.47
2022-08-01T00:40:49.747Z,71.41
2022-08-01T00:43:52.662Z,71.42
2022-08-01T00:46:55.502Z,71.35
2022-08-01T00:49:58.350Z,71.39
2022-08-01T00:53:02.064Z,71.36
2022-08-01T00:56:05.456Z,71.39
2022-08-01T00:59:10.423Z,71.41
2022-08-01T01:02:14.622Z,71.31
2022-08-01T01:05:18.933Z,71.34
2022-08-01T01:08:28.107Z,71.24
2022-08-01T01:11:45.272Z,71.19
2022-08-01T01:15:06.263Z,71.26
2022-08-01T01:18:18.323Z,71.23
2022-08-01T01:21:24.794Z,71.09
2022-08-01T01:25:00.301Z,71.06
2022-08-01T01:28:34.608Z,71.03
2022-08-01T01:31:47.175Z,71.06
2022-08-01T01:34:54.552Z,70.97
2022-08-01T01:38:03.116Z,71.03
2022-08-01T01:41:07.314Z,70.99
2022-08-01T01:44:11.593Z,70.93
2022-08-01T01:47:16.278Z,70.83
2022-08-01T01:50:22.121Z,70.82
2022-08-01T01:53:28.053Z,70.81
2022-08-01T01:56:32.082Z,70.75
2022-08-01T01:59:38.693Z,70.61
2022-08-01T02:02:43.447Z,70.58
2022-08-01T02:05:48.151Z,70.58
2022-08-01T02:08:53.193Z,70.54
2022-08-01T02:12:08.660Z,70.56
2022-08-01T02:15:14.284Z,70.59
2022-08-01T02:18:17.207Z,70.59
2022-08-01T02:21:45.175Z,70.53
2022-08-01T02:24:55.937Z,70.48
2022-08-01T02:28:14.569Z,70.39
2022-08-01T02:31:21.608Z,70.27
2022-08-01T02:34:29.265Z,70.21
2022-08-01T02:37:35.662Z,70.18
2022-08-01T02:40:42.791Z,70.09
2022-08-01T02:43:53.247Z,70.15
2022-08-01T02:47:05.803Z,70.10
2022-08-01T02:50:13.453Z,70.14
2022-08-01T02:53:21.874Z,70.20
2022-08-01T02:56:35.821Z,70.21
2022-08-01T02:59:41.257Z,70.17
2022-08-01T03:02:46.230Z,70.20
2022-08-01T03:05:50.001Z,70.13
2022-08-01T03:08:54.689Z,70.09
2022-08-01T03:12:01.933Z,70.10
2022-08-01T03:15:06.919Z,70.04
2022-08-01T03:18:15.272Z,70.10
2022-08-01T03:21:21.702Z,70.11
2022-08-01T03:24:27.171Z,70.08
2022-08-01T03:27:30.669Z,70.15
2022-08-01T03:30:34.879Z,70.12
2022-08-01T03:33:37.740Z,70.22
2022-08-01T03:36:50.702Z,70.16
2022-08-01T03:39:59.955Z,70.20
2022-08-01T03:43:17.194Z,70.23
2022-08-01T03:46:30.002Z,70.11
2022-08-01T03:49:39.180Z,70.13
2022-08-01T03:52:46.213Z,70.17
2022-08-01T03:55:50.817Z,70.23
2022-08-01T03:58:54.642Z,70.28
2022-08-01T04:01:58.746Z,70.46
2022-08-01T04:05:02.860Z,70.42
2022-08-01T04:08:05.831Z,70.41
2022-08-01T04:11:10.353Z,70.47
2022-08-01T04:14:13.339Z,70.52
2022-08-01T04:17:17.478Z,70.58
2022-08-01T04:20:23.014Z,70.65
2022-08-01T04:23:28.596Z,70.72
2022-08-01T04:26:35.871Z,70.83
2022-08-01T04:29:39.612Z,70.82
2022-08-01T04:32:46.074Z,70.99
2022-08-01T04:36:02.814Z,71.10
2022-08-01T04:39:07.820Z,71.17
2022-08-01T04:42:12.201Z,71.29
2022-08-01T04:45:15.099Z,71.38
2022-08-01T04:48:20.427Z,71.45
2022-08-01T04:51:25.933Z,71.53
2022-08-01T04:54:30.773Z,71.70
2022-08-01T04:57:40.792Z,71.89
2022-08-01T05:00:43.841Z,72.14
2022-08-01T05:03:46.684Z,72.40
2022-08-01T05:06:49.548Z,72.55
2022-08-01T05:09:52.473Z,72.78
2022-08-01T05:12:55.484Z,72.83
2022-08-01T05:15:58.424Z,72.91
2022-08-01T05:19:03.621Z,73.05
2022-08-01T05:22:08.274Z,73.15
2022-08-01T05:25:12.247Z,73.26
2022-08-01T05:28:19.056Z,73.33
2022-08-01T05:31:22.232Z,73.52
2022-08-01T05:34:25.290Z,73.51
2022-08-01T05:37:28.226Z,73.58
2022-08-01T05:40:31.115Z,73.71
2022-08-01T05:43:34.315Z,73.88
2022-08-01T05:46:37.642Z,73.93
2022-08-01T05:49:40.532Z,73.84
2022-08-01T05:52:43.537Z,73.80
2022-08-01T05:55:46.489Z,73.89
2022-08-01T05:58:51.496Z,73.82
2022-08-01T06:01:54.650Z,73.79
2022-08-01T06:04:58.121Z,73.67
2022-08-01T06:08:01.251Z,73.67
2022-08-01T06:11:06.233Z,73.69
2022-08-01T06:14:09.277Z,73.78
2022-08-01T06:17:12.274Z,73.82
2022-08-01T06:20:15.514Z,73.72
2022-08-01T06:23:32.616Z,73.73
2022-08-01T06:26:38.261Z,73.86
2022-08-01T06:29:41.297Z,73.82
2022-08-01T06:32:56.947Z,73.70
2022-08-01T06:35:59.972Z,73.60
2022-08-01T06:39:04.506Z,73.64
2022-08-01T06:42:07.917Z,73.57
2022-08-01T06:45:12.623Z,73.49
2022-08-01T06:48:15.658Z,73.38
2022-08-01T06:51:20.923Z,73.26
2022-08-01T06:54:24.633Z,73.05
2022-08-01T06:57:27.901Z,72.79
2022-08-01T07:00:32.599Z,72.65
2022-08-01T07:03:53.656Z,72.45
2022-08-01T07:06:58.176Z,72.22
2022-08-01T07:10:01.598Z,72.08
2022-08-01T07:13:04.586Z,71.62
2022-08-01T07:16:07.483Z,71.46
2022-08-01T07:19:10.389Z,71.33
2022-08-01T07:22:15.053Z,71.09
2022-08-01T07:25:26.438Z,70.83
2022-08-01T07:28:30.144Z,70.52
2022-08-01T07:31:32.984Z,70.34
2022-08-01T07:34:35.887Z,69.94
2022-08-01T07:37:42.165Z,69.75
2022-08-01T07:40:51.830Z,69.69
2022-08-01T07:43:58.024Z,69.38
2022-08-01T07:47:05.348Z,68.93
2022-08-01T07:50:08.842Z,69.06
2022-08-01T07:53:12.382Z,68.99
2022-08-01T07:56:15.798Z,69.03
2022-08-01T07:59:26.207Z,69.22
2022-08-01T08:02:29.525Z,69.24
2022-08-01T08:05:58.371Z,69.34
2022-08-01T08:09:00.408Z,69.42
2022-08-01T08:12:03.791Z,69.35
2022-08-01T08:15:07.742Z,69.28
2022-08-01T08:18:10.731Z,68.91
2022-08-01T08:21:13.749Z,68.48
2022-08-01T08:24:25.918Z,68.32
2022-08-01T08:27:29.997Z,68.12
2022-08-01T08:30:33.139Z,68.03
2022-08-01T08:33:36.281Z,68.15
2022-08-01T08:36:39.536Z,68.29
2022-08-01T08:39:51.063Z,68.30
2022-08-01T08:42:54.327Z,68.39
2022-08-01T08:45:59.267Z,68.30
2022-08-01T08:49:06.492Z,68.34
2022-08-01T08:52:10.856Z,68.25
2022-08-01T08:55:15.713Z,68.16
2022-08-01T08:58:20.557Z,68.11
2022-08-01T09:01:24.374Z,68.40
2022-08-01T09:04:27.679Z,68.63
2022-08-01T09:07:30.824Z,68.75
2022-08-01T09:10:33.756Z,68.50
2022-08-01T09:13:38.205Z,68.43
2022-08-01T09:16:49.145Z,68.41
2022-08-01T09:19:54.845Z,68.39
2022-08-01T09:22:57.941Z,68.44
2022-08-01T09:26:00.882Z,68.44
2022-08-01T09:29:10.401Z,68.31
2022-08-01T09:32:16.122Z,68.31
2022-08-01T09:35:30.182Z,68.43
2022-08-01T09:38:34.677Z,68.49
2022-08-01T09:41:40.327Z,68.58
2022-08-01T09:44:54.843Z,68.70
2022-08-01T09:48:10.600Z,68.67
2022-08-01T09:51:58.585Z,68.45
2022-08-01T09:54:54.286Z,68.08
2022-08-01T09:58:01.824Z,68.31
2022-08-01T10:01:06.036Z,68.20
2022-08-01T10:04:15.734Z,67.91
2022-08-01T10:07:21.526Z,67.43
2022-08-01T10:11:12.179Z,67.36
2022-08-01T10:14:17.709Z,67.31
2022-08-01T10:17:22.784Z,67.28
2022-08-01T10:20:30.938Z,66.62
2022-08-01T10:23:39.747Z,65.67
2022-08-01T10:26:45.297Z,65.51
2022-08-01T10:30:05.302Z,65.50
2022-08-01T10:33:19.911Z,65.34
2022-08-01T10:36:40.950Z,65.41
2022-08-01T10:39:46.897Z,65.78
2022-08-01T10:42:51.522Z,65.54
2022-08-01T10:45:56.314Z,65.66
2022-08-01T10:49:16.913Z,65.47
2022-08-01T10:52:20.987Z,65.01
2022-08-01T10:55:26.078Z,65.02
2022-08-01T10:58:30.526Z,65.02
2022-08-01T11:01:37.563Z,65.05
2022-08-01T11:04:46.702Z,64.94
2022-08-01T11:07:56.181Z,65.13
2022-08-01T11:11:02.866Z,65.12
2022-08-01T11:14:13.636Z,65.12
2022-08-01T11:17:42.041Z,65.16
2022-08-01T11:21:57.956Z,65.22
2022-08-01T11:24:55.449Z,65.33
2022-08-01T11:28:15.312Z,65.06
2022-08-01T11:31:22.806Z,64.89
2022-08-01T11:34:57.695Z,64.63
2022-08-01T11:38:31.059Z,64.82
2022-08-01T11:41:37.678Z,64.82
2022-08-01T11:44:52.447Z,64.72
2022-08-01T11:47:57.005Z,64.85
2022-08-01T11:51:02.234Z,64.40
2022-08-01T11:54:05.656Z,64.18
2022-08-01T11:57:22.955Z,63.82
2022-08-01T12:00:27.111Z,63.68
2022-08-01T12:03:34.567Z,63.41
2022-08-01T12:06:38.137Z,63.22
2022-08-01T12:09:45.710Z,62.99
2022-08-01T12:12:54.517Z,62.86
2022-08-01T12:15:59.186Z,62.97
2022-08-01T12:19:02.979Z,63.02
2022-08-01T12:22:14.847Z,62.59
2022-08-01T12:25:18.931Z,62.53
2022-08-01T12:28:22.349Z,62.36
2022-08-01T12:31:35.537Z,62.06
2022-08-01T12:34:41.997Z,61.75
2022-08-01T12:37:50.594Z,61.60
2022-08-01T12:40:54.928Z,61.27
2022-08-01T12:43:58.144Z,61.16
2022-08-01T12:47:02.499Z,60.98
2022-08-01T12:50:12.850Z,61.11
2022-08-01T12:53:17.105Z,60.46
2022-08-01T12:56:33.124Z,60.34
2022-08-01T12:59:36.791Z,59.76
2022-08-01T13:02:42.801Z,59.56
2022-08-01T13:05:53.392Z,59.72
2022-08-01T13:09:05.722Z,59.54
2022-08-01T13:12:12.775Z,59.49
2022-08-01T13:15:20.605Z,59.66
2022-08-01T13:18:26.379Z,59.80
2022-08-01T13:21:52.497Z,60.05
2022-08-01T13:24:53.802Z,59.91
2022-08-01T13:28:16.063Z,59.85
2022-08-01T13:31:18.917Z,60.01
2022-08-01T13:34:35.123Z,60.30
2022-08-01T13:37:39.551Z,60.34
2022-08-01T13:40:42.558Z,60.42
2022-08-01T13:43:57.539Z,60.31
2022-08-01T13:47:14.889Z,59.82
2022-08-01T13:50:19.898Z,59.97
2022-08-01T13:53:22.974Z,59.89
2022-08-01T13:56:28.620Z,59.59
2022-08-01T13:59:31.637Z,59.47
2022-08-01T14:02:35.280Z,59.72
2022-08-01T14:05:38.741Z,59.72
2022-08-01T14:08:46.038Z,59.70
2022-08-01T14:11:50.424Z,59.48
2022-08-01T14:14:54.483Z,59.53
2022-08-01T14:17:57.429Z,59.57
2022-08-01T14:21:05.376Z,59.75
2022-08-01T14:24:09.481Z,59.89
2022-08-01T14:27:12.663Z,59.51
2022-08-01T14:30:15.732Z,59.20
2022-08-01T14:33:18.598Z,58.70
2022-08-01T14:36:30.282Z,58.68
2022-08-01T14:39:34.309Z,58.55
2022-08-01T14:42:39.354Z,58.53
2022-08-01T14:45:42.287Z,58.15
2022-08-01T14:48:45.150Z,57.55
2022-08-01T14:51:48.069Z,57.51
2022-08-01T14:54:50.962Z,57.54
2022-08-01T14:57:54.823Z,57.52
2022-08-01T15:00:59.250Z,57.40
2022-08-01T15:04:04.543Z,57.32
2022-08-01T15:07:07.628Z,57.37
2022-08-01T15:10:10.965Z,57.55
2022-08-01T15:13:13.932Z,57.70
2022-08-01T15:16:16.781Z,57.98
2022-08-01T15:19:19.714Z,57.93
2022-08-01T15:22:24.097Z,58.00
2022-08-01T15:25:41.458Z,58.08
2022-08-01T15:28:45.134Z,58.20
2022-08-01T15:31:48.034Z,58.61
2022-08-01T15:34:51.011Z,58.52
2022-08-01T15:37:53.926Z,58.49
2022-08-01T15:40:56.878Z,58.33
2022-08-01T15:43:59.732Z,58.51
2022-08-01T15:47:03.687Z,58.39
2022-08-01T15:50:08.030Z,58.63
2022-08-01T15:53:11.064Z,58.65
2022-08-01T15:56:14.663Z,58.83
2022-08-01T15:59:18.113Z,59.02
2022-08-01T16:02:21.243Z,59.11
2022-08-01T16:05:24.381Z,59.33
2022-08-01T16:08:27.289Z,59.45
2022-08-01T16:11:30.289Z,59.79
2022-08-01T16:14:33.271Z,59.85
2022-08-01T16:17:40.497Z,60.03
2022-08-01T16:20:47.626Z,60.23
2022-08-01T16:23:52.032Z,60.51
2022-08-01T16:26:55.785Z,60.72
2022-08-01T16:29:58.760Z,60.88
2022-08-01T16:33:06.331Z,61.07
2022-08-01T16:36:24.888Z,61.47
2022-08-01T16:39:30.509Z,61.63
2022-08-01T16:42:36.970Z,61.68
2022-08-01T16:45:42.642Z,61.70
2022-08-01T16:48:46.050Z,61.67
2022-08-01T16:51:49.016Z,61.95
2022-08-01T16:54:51.972Z,61.74
2022-08-01T16:57:57.770Z,61.99
2022-08-01T17:02:01.298Z,62.00
2022-08-01T17:04:24.065Z,62.26
2022-08-01T17:07:27.775Z,62.11
2022-08-01T17:10:31.732Z,62.07
2022-08-01T17:13:34.910Z,62.13
2022-08-01T17:16:38.389Z,62.27
2022-08-01T17:19:41.484Z,62.25
2022-08-01T17:22:44.503Z,62.39
2022-08-01T17:25:47.697Z,62.51
2022-08-01T17:28:50.684Z,62.67
2022-08-01T17:31:54.419Z,62.37
2022-08-01T17:34:57.328Z,62.39
2022-08-01T17:38:00.577Z,62.57
2022-08-01T17:41:03.512Z,62.35
2022-08-01T17:44:07.536Z,62.45
2022-08-01T17:47:10.761Z,62.55
2022-08-01T17:50:13.993Z,62.71
2022-08-01T17:53:20.922Z,62.65
2022-08-01T17:56:26.200Z,62.82
2022-08-01T17:59:29.397Z,63.18
2022-08-01T18:02:32.356Z,63.27
2022-08-01T18:05:37.471Z,63.53
2022-08-01T18:08:42.007Z,63.64
2022-08-01T18:11:45.697Z,63.78
2022-08-01T18:14:48.930Z,63.89
2022-08-01T18:17:52.372Z,64.12
2022-08-01T18:20:55.289Z,64.20
2022-08-01T18:24:02.999Z,64.31
2022-08-01T18:27:06.424Z,64.51
2022-08-01T18:30:10.162Z,64.57
2022-08-01T18:33:13.065Z,64.68
2022-08-01T18:36:31.999Z,64.68
2022-08-01T18:39:36.881Z,64.97
2022-08-01T18:42:42.205Z,65.04
2022-08-01T18:45:45.100Z,65.24
2022-08-01T18:48:48.673Z,65.47
2022-08-01T18:51:52.016Z,65.61
2022-08-01T18:54:55.440Z,65.63
2022-08-01T18:57:58.417Z,65.77
2022-08-01T19:01:01.513Z,65.90
2022-08-01T19:04:04.615Z,66.01
2022-08-01T19:07:08.086Z,66.13
2022-08-01T19:10:12.361Z,66.12
2022-08-01T19:13:16.776Z,66.26
2022-08-01T19:16:19.693Z,66.45
2022-08-01T19:19:27.806Z,66.42
2022-08-01T19:22:31.130Z,66.51
2022-08-01T19:25:34.403Z,66.52
2022-08-01T19:29:02.121Z,66.68
2022-08-01T19:32:07.043Z,66.65
2022-08-01T19:35:12.943Z,66.80
2022-08-01T19:38:16.738Z,66.66
2022-08-01T19:41:19.700Z,66.68
2022-08-01T19:44:24.939Z,66.61
2022-08-01T19:47:51.637Z,66.71
2022-08-01T19:50:52.623Z,66.88
2022-08-01T19:53:58.612Z,66.98
2022-08-01T19:57:06.127Z,67.16
2022-08-01T20:00:10.578Z,67.26
2022-08-01T20:03:28.388Z,67.30
2022-08-01T20:06:33.246Z,67.49
2022-08-01T20:09:39.233Z,67.63
2022-08-01T20:12:42.889Z,67.65
2022-08-01T20:15:46.781Z,67.74
2022-08-01T20:18:50.229Z,67.80
2022-08-01T20:22:02.766Z,67.88
2022-08-01T20:25:09.985Z,68.04
2022-08-01T20:28:13.531Z,68.02
2022-08-01T20:31:19.620Z,67.94
2022-08-01T20:34:24.531Z,67.82
2022-08-01T20:38:01.251Z,67.90
2022-08-01T20:40:53.280Z,67.83
2022-08-01T20:43:57.635Z,67.95
2022-08-01T20:47:05.248Z,67.80
2022-08-01T20:50:53.261Z,67.93
2022-08-01T20:53:52.684Z,68.03
2022-08-01T20:56:59.249Z,68.10
2022-08-01T21:00:06.075Z,68.18
2022-08-01T21:03:15.763Z,68.09
2022-08-01T21:06:26.167Z,68.22
2022-08-01T21:09:39.776Z,68.33
2022-08-01T21:12:59.078Z,68.51
2022-08-01T21:16:22.186Z,68.50
2022-08-01T21:19:27.943Z,68.58
2022-08-01T21:22:41.615Z,68.60
2022-08-01T21:25:44.623Z,68.64
2022-08-01T21:28:54.530Z,68.74
2022-08-01T21:32:13.199Z,68.81
2022-08-01T21:35:19.142Z,68.80
2022-08-01T21:38:24.205Z,68.94
2022-08-01T21:42:03.489Z,69.01
2022-08-01T21:44:54.602Z,69.09
2022-08-01T21:47:59.183Z,69.15
2022-08-01T21:51:14.808Z,69.14
2022-08-01T21:54:45.964Z,69.21
2022-08-01T21:57:48.863Z,69.29
2022-08-01T22:00:57.559Z,69.28
2022-08-01T22:04:03.031Z,69.34
2022-08-01T22:07:10.653Z,69.30
2022-08-01T22:10:16.582Z,69.34
2022-08-01T22:13:19.479Z,69.36
2022-08-01T22:16:23.618Z,69.41
2022-08-01T22:19:32.409Z,69.38
2022-08-01T22:22:52.232Z,69.45
2022-08-01T22:25:56.031Z,69.43
2022-08-01T22:29:00.286Z,69.47
2022-08-01T22:32:03.666Z,69.56
2022-08-01T22:35:12.272Z,69.63
2022-08-01T22:38:18.062Z,69.65
2022-08-01T22:41:26.222Z,69.69
2022-08-01T22:44:40.459Z,69.73
2022-08-01T22:48:00.107Z,69.69
2022-08-01T22:51:09.321Z,69.77
2022-08-01T22:54:14.523Z,69.72
2022-08-01T22:57:55.242Z,69.77
2022-08-01T23:01:01.481Z,69.74
2022-08-01T23:04:05.843Z,69.70
2022-08-01T23:07:10.850Z,69.62
2022-08-01T23:10:13.886Z,69.76
2022-08-01T23:13:17.661Z,69.80
2022-08-01T23:16:21.873Z,69.78
2022-08-01T23:19:26.193Z,69.79
2022-08-01T23:22:32.387Z,69.84
2022-08-01T23:25:37.454Z,69.73
2022-08-01T23:28:41.357Z,69.75
2022-08-01T23:32:03.163Z,69.85
2022-08-01T23:35:07.444Z,69.95
2022-08-01T23:38:11.010Z,70.00
2022-08-01T23:41:16.697Z,69.93
2022-08-01T23:44:19.530Z,69.94
2022-08-01T23:47:23.558Z,70.00
2022-08-01T23:50:27.238Z,69.96
2022-08-01T23:53:31.906Z,69.88
2022-08-01T23:56:34.941Z,69.96
2022-08-01T23:59:53.629Z,69.92
